createdAt,value
2019-04-07T00:04:52.363Z,100333.52
2019-04-07T00:09:58.674Z,100326.91
2019-04-07T00:15:05.950Z,100326.17
2019-04-07T00:20:12.492Z,100318.18
2019-04-07T00:25:18.368Z,100317.82
2019-04-07T00:30:24.200Z,100309.28
2019-04-07T00:35:32.594Z,100312.90
2019-04-07T00:40:38.235Z,100307.56
2019-04-07T00:45:44.074Z,100290.12
2019-04-07T00:50:50.337Z,100287.24
2019-04-07T00:55:56.284Z,100287.42
2019-04-07T01:01:02.092Z,100292.89
2019-04-07T01:06:07.845Z,100298.51
2019-04-07T01:11:13.622Z,100290.03
2019-04-07T01:16:19.898Z,100277.48
2019-04-07T01:21:25.766Z,100288.98
2019-04-07T01:26:31.882Z,100282.05
2019-04-07T01:31:38.019Z,100281.11
2019-04-07T01:36:45.501Z,100287.87
2019-04-07T01:41:52.797Z,100281.86
2019-04-07T01:47:06.267Z,100288.73
2019-04-07T01:52:13.655Z,100277.33
2019-04-07T01:57:26.801Z,100285.55
2019-04-07T02:02:34.162Z,100284.06
2019-04-07T02:07:56.641Z,100276.38
2019-04-07T02:13:04.352Z,100269.00
2019-04-07T02:18:14.825Z,100283.61
2019-04-07T02:23:40.561Z,100285.80
2019-04-07T02:28:59.990Z,100285.61
2019-04-07T02:34:25.738Z,100288.23
2019-04-07T02:39:33.239Z,100262.80
2019-04-07T02:44:40.972Z,100242.87
2019-04-07T02:49:48.692Z,100252.84
2019-04-07T02:55:05.063Z,100253.10
2019-04-07T03:00:16.005Z,100236.33
2019-04-07T03:05:24.157Z,100173.95
2019-04-07T03:10:40.712Z,100139.74
2019-04-07T03:15:57.880Z,100104.48
2019-04-07T03:21:24.738Z,100006.55
2019-04-07T03:26:48.765Z,99929.27
2019-04-07T03:32:10.306Z,99954.09
2019-04-07T03:37:31.266Z,99943.45
2019-04-07T03:42:43.611Z,99889.23
2019-04-07T03:48:08.395Z,99789.92
2019-04-07T03:53:15.979Z,99760.80
2019-04-07T03:58:23.276Z,99653.17
2019-04-07T04:03:46.900Z,99653.17
2019-04-07T04:08:56.961Z,99504.27
2019-04-07T04:14:11.092Z,99456.23
2019-04-07T04:19:17.005Z,99387.70
2019-04-07T04:24:23.023Z,99412.27
2019-04-07T04:29:29.985Z,99429.80
2019-04-07T04:34:36.742Z,99451.55
2019-04-07T04:39:42.795Z,99468.83
2019-04-07T04:44:48.909Z,99498.19
2019-04-07T04:49:54.825Z,99498.19
2019-04-07T04:55:01.899Z,99485.22
2019-04-07T05:00:08.920Z,99493.06
2019-04-07T05:05:14.782Z,99472.73
2019-04-07T05:10:21.083Z,99426.39
2019-04-07T05:15:27.552Z,99463.98
2019-04-07T05:20:34.365Z,99479.78
2019-04-07T05:25:40.525Z,99476.89
2019-04-07T05:30:47.993Z,99485.95
2019-04-07T05:35:55.749Z,99538.15
2019-04-07T05:41:04.236Z,99576.37
2019-04-07T05:46:09.908Z,99576.37
2019-04-07T05:51:15.690Z,99638.61
2019-04-07T05:56:21.454Z,99681.30
2019-04-07T06:01:27.426Z,99735.67
2019-04-07T06:06:33.240Z,99750.39
2019-04-07T06:11:39.085Z,99787.67
2019-04-07T06:16:45.186Z,99829.72
2019-04-07T06:21:51.651Z,99874.80
2019-04-07T06:26:58.732Z,99889.27
2019-04-07T06:32:05.570Z,99874.32
2019-04-07T06:37:12.273Z,99908.08
2019-04-07T06:42:19.662Z,99974.28
2019-04-07T06:47:32.035Z,100005.16
2019-04-07T06:52:42.194Z,100035.09
2019-04-07T06:57:52.640Z,100050.40
2019-04-07T07:03:16.593Z,100066.00
2019-04-07T07:08:45.726Z,100090.28
2019-04-07T07:13:49.924Z,100110.37
2019-04-07T07:18:58.172Z,100121.96
2019-04-07T07:24:04.994Z,100136.11
2019-04-07T07:29:13.237Z,100152.47
2019-04-07T07:34:18.722Z,100172.83
2019-04-07T07:39:25.125Z,100189.95
2019-04-07T07:44:34.354Z,100204.94
2019-04-07T07:49:40.925Z,100220.22
2019-04-07T07:54:46.365Z,100227.95
2019-04-07T07:59:52.371Z,100239.58
2019-04-07T08:04:59.277Z,100244.88
2019-04-07T08:10:09.904Z,100249.80
2019-04-07T08:15:15.662Z,100261.44
2019-04-07T08:20:22.047Z,100272.15
2019-04-07T08:25:28.163Z,100295.71
2019-04-07T08:30:33.958Z,100307.02
2019-04-07T08:35:40.711Z,100326.22
2019-04-07T08:40:46.835Z,100345.91
2019-04-07T08:45:54.636Z,100355.80
2019-04-07T08:51:01.218Z,100370.92
2019-04-07T08:56:08.799Z,100373.08
2019-04-07T09:01:17.358Z,100294.59
2019-04-07T09:06:22.010Z,100380.52
2019-04-07T09:11:29.267Z,100315.70
2019-04-07T09:16:39.449Z,100329.83
2019-04-07T09:21:51.690Z,100416.17
2019-04-07T09:27:13.973Z,100430.09
2019-04-07T09:32:30.109Z,100420.94
2019-04-07T09:37:41.544Z,100443.84
2019-04-07T09:43:01.405Z,100448.06
2019-04-07T09:48:17.695Z,100442.51
2019-04-07T09:53:37.081Z,100444.28
2019-04-07T09:58:49.271Z,100448.77
2019-04-07T10:03:56.726Z,100454.13
2019-04-07T10:09:06.949Z,100456.56
2019-04-07T10:14:21.767Z,100448.80
2019-04-07T10:19:30.033Z,100452.86
2019-04-07T10:24:40.434Z,100448.22
2019-04-07T10:29:55.595Z,100457.30
2019-04-07T10:35:05.864Z,100448.05
2019-04-07T10:40:20.937Z,100450.22
2019-04-07T10:45:41.750Z,100440.76
2019-04-07T10:50:58.990Z,100447.61
2019-04-07T10:56:23.034Z,100440.09
2019-04-07T11:01:36.359Z,100432.03
2019-04-07T11:06:43.990Z,100434.17
2019-04-07T11:11:57.553Z,100428.70
2019-04-07T11:17:08.214Z,100416.53
2019-04-07T11:22:15.564Z,100414.23
2019-04-07T11:27:38.377Z,100409.52
2019-04-07T11:32:52.210Z,100417.52
2019-04-07T11:38:09.234Z,100406.42
2019-04-07T11:49:15.011Z,100401.94
2019-04-07T11:54:22.357Z,100402.00
2019-04-07T11:59:32.971Z,100408.28
2019-04-07T12:04:41.749Z,100403.76
2019-04-07T12:10:05.160Z,100401.28
2019-04-07T12:15:13.103Z,100391.81
2019-04-07T12:20:38.510Z,100390.00
2019-04-07T12:25:46.125Z,100397.86
2019-04-07T12:31:10.676Z,100403.44
2019-04-07T12:36:36.089Z,100392.75
2019-04-07T12:41:46.633Z,100390.14
2019-04-07T12:47:09.237Z,100387.33
2019-04-07T12:52:17.369Z,100381.13
2019-04-07T12:57:39.562Z,100388.22
2019-04-07T13:02:56.314Z,100375.25
2019-04-07T13:08:07.053Z,100376.26
2019-04-07T13:13:18.096Z,100375.94
2019-04-07T13:18:36.241Z,100375.80
2019-04-07T13:23:57.500Z,100369.55
2019-04-07T13:29:14.621Z,100368.89
2019-04-07T13:34:22.285Z,100365.52
2019-04-07T13:39:48.371Z,100360.14
2019-04-07T13:45:03.879Z,100361.00
2019-04-07T13:50:19.169Z,100353.66
2019-04-07T13:55:27.399Z,100363.88
2019-04-07T14:00:52.022Z,100359.34
2019-04-07T14:06:14.296Z,100355.82
2019-04-07T14:11:35.064Z,100358.21
2019-04-07T14:16:48.698Z,100367.88
2019-04-07T14:22:14.427Z,100347.90
2019-04-07T14:27:29.777Z,100346.55
2019-04-07T14:32:42.803Z,100348.28
2019-04-07T14:38:03.805Z,100351.86
2019-04-07T14:43:23.563Z,100355.87
2019-04-07T14:48:37.626Z,100357.03
2019-04-07T14:53:51.375Z,100351.83
2019-04-07T14:59:15.200Z,100351.02
2019-04-07T15:04:22.652Z,100356.60
2019-04-07T15:09:46.981Z,100351.39
2019-04-07T15:14:52.904Z,100349.89
2019-04-07T15:19:58.649Z,100349.60
2019-04-07T15:25:07.176Z,100352.22
2019-04-07T15:30:15.343Z,100341.91
2019-04-07T15:35:20.200Z,100348.52
2019-04-07T15:40:28.156Z,100348.50
2019-04-07T15:45:34.188Z,100353.85
2019-04-07T15:50:40.107Z,100353.72
2019-04-07T15:55:56.674Z,100361.66
2019-04-07T16:00:54.969Z,100354.03
2019-04-07T16:06:00.806Z,100353.55
2019-04-07T16:11:06.951Z,100362.64
2019-04-07T16:16:13.481Z,100351.97
2019-04-07T16:21:19.616Z,100357.06
2019-04-07T16:26:26.121Z,100364.02
2019-04-07T16:31:32.278Z,100362.89
2019-04-07T16:36:38.474Z,100365.55
2019-04-07T16:41:45.993Z,100369.13
2019-04-07T16:46:54.863Z,100363.30
2019-04-07T16:52:01.232Z,100374.12
2019-04-07T16:57:09.369Z,100367.62
2019-04-07T17:02:17.652Z,100366.49
2019-04-07T17:07:23.369Z,100381.59
2019-04-07T17:12:30.226Z,100383.84
2019-04-07T17:17:36.887Z,100388.98
2019-04-07T17:22:46.019Z,100386.05
2019-04-07T17:27:50.876Z,100387.24
2019-04-07T17:32:57.164Z,100398.13
2019-04-07T17:38:06.673Z,100403.73
2019-04-07T17:43:40.533Z,100409.53
2019-04-07T17:48:53.091Z,100408.78
2019-04-07T17:53:55.113Z,100416.36
2019-04-07T17:59:19.178Z,100425.62
2019-04-07T18:04:30.562Z,100435.50
2019-04-07T18:09:47.967Z,100435.12
2019-04-07T18:15:12.015Z,100438.09
2019-04-07T18:20:28.373Z,100440.92
2019-04-07T18:25:53.226Z,100451.45
2019-04-07T18:31:04.332Z,100457.64
2019-04-07T18:36:27.618Z,100467.22
2019-04-07T18:41:50.536Z,100472.80
2019-04-07T18:47:04.729Z,100474.44
2019-04-07T18:52:28.865Z,100478.41
2019-04-07T18:57:42.612Z,100467.16
2019-04-07T19:02:50.482Z,100469.25
2019-04-07T19:08:04.024Z,100467.91
2019-04-07T19:13:26.970Z,100474.69
2019-04-07T19:18:49.108Z,100464.17
2019-04-07T19:24:00.055Z,100435.56
2019-04-07T19:29:15.188Z,100440.55
2019-04-07T19:34:30.687Z,100423.22
2019-04-07T19:39:53.552Z,100419.69
2019-04-07T19:45:00.759Z,100424.42
2019-04-07T19:50:12.217Z,100404.09
2019-04-07T19:55:34.634Z,100402.55
2019-04-07T20:00:51.651Z,100390.08
2019-04-07T20:06:11.343Z,100369.81
2019-04-07T20:11:21.109Z,100372.23
2019-04-07T20:16:32.683Z,100373.94
2019-04-07T20:21:49.368Z,100362.34
2019-04-07T20:27:01.116Z,100366.87
2019-04-07T20:32:08.575Z,100366.23
2019-04-07T20:37:25.308Z,100365.23
2019-04-07T20:42:32.171Z,100378.78
2019-04-07T20:47:40.334Z,100375.18
2019-04-07T20:52:48.136Z,100364.22
2019-04-07T20:58:11.586Z,100394.95
2019-04-07T21:03:25.139Z,100390.27
2019-04-07T21:08:37.708Z,100373.81
2019-04-07T21:13:47.133Z,100394.88
2019-04-07T21:19:11.299Z,100420.00
2019-04-07T21:24:21.625Z,100420.51
2019-04-07T21:29:29.072Z,100423.37
2019-04-07T21:34:39.146Z,100423.66
2019-04-07T21:40:06.986Z,100420.86
2019-04-07T21:45:33.019Z,100419.67
2019-04-07T21:50:33.705Z,100405.50
2019-04-07T21:55:47.682Z,100407.38
2019-04-07T22:01:12.184Z,100405.63
2019-04-07T22:06:37.607Z,100374.81
2019-04-07T22:11:44.705Z,100378.58
2019-04-07T22:16:51.234Z,100372.12
2019-04-07T22:21:57.208Z,100355.13
2019-04-07T22:27:04.575Z,100375.97
2019-04-07T22:32:10.540Z,100376.70
2019-04-07T22:37:18.696Z,100379.55
2019-04-07T22:42:24.347Z,100347.28
2019-04-07T22:47:30.415Z,100347.93
2019-04-07T22:52:36.203Z,100338.83
2019-04-07T22:57:42.832Z,100330.70
2019-04-07T23:02:48.957Z,100326.02
2019-04-07T23:07:54.664Z,100309.66
2019-04-07T23:13:01.464Z,100283.73
2019-04-07T23:18:08.585Z,100278.83
2019-04-07T23:23:14.517Z,100264.27
2019-04-07T23:28:20.893Z,100240.44
2019-04-07T23:33:27.609Z,100262.48
2019-04-07T23:38:34.739Z,100282.72
2019-04-07T23:43:40.690Z,100338.05
2019-04-07T23:48:46.455Z,100336.41
2019-04-07T23:54:11.305Z,100353.20
2019-04-07T23:59:17.461Z,100315.67
